createdAt,value
2023-05-05T14:03:35.888Z,36.00
2023-05-05T14:06:02.671Z,35.20
2023-05-05T14:08:29.474Z,35.80
2023-05-05T14:10:56.276Z,35.00
2023-05-05T14:13:23.008Z,34.80
2023-05-05T14:15:50.771Z,34.80
2023-05-05T14:18:17.470Z,34.50
2023-05-05T14:20:44.199Z,34.90
2023-05-05T14:23:11.018Z,35.30
2023-05-05T14:25:38.381Z,35.30
2023-05-05T14:28:05.477Z,35.00
2023-05-05T14:30:32.246Z,35.10
2023-05-05T14:32:59.094Z,34.50
2023-05-05T14:35:25.937Z,35.00
2023-05-05T14:37:52.719Z,35.50
2023-05-05T14:40:19.444Z,36.10
2023-05-05T14:42:46.237Z,35.40
2023-05-05T14:45:13.012Z,35.80
2023-05-05T14:47:39.866Z,35.70
2023-05-05T14:50:09.920Z,36.30
2023-05-05T14:52:40.372Z,35.90
2023-05-05T14:55:08.067Z,35.80
2023-05-05T14:57:35.099Z,35.60
2023-05-05T15:00:01.950Z,35.20
2023-05-05T15:02:28.721Z,35.00
2023-05-05T15:04:55.630Z,34.90
2023-05-05T15:07:22.754Z,34.60
2023-05-05T15:09:49.574Z,34.60
2023-05-05T15:12:16.425Z,33.90
2023-05-05T15:14:43.178Z,34.40
2023-05-05T15:17:09.942Z,34.40
2023-05-05T15:19:36.744Z,33.90
2023-05-05T15:22:03.498Z,33.50
2023-05-05T15:24:30.268Z,33.50
2023-05-05T15:26:57.015Z,33.60
2023-05-05T15:29:23.819Z,34.00
2023-05-05T15:31:50.743Z,34.30
2023-05-05T15:34:17.555Z,34.40
2023-05-05T15:36:44.337Z,34.20
2023-05-05T15:39:11.136Z,34.30
2023-05-05T15:41:38.006Z,34.70
2023-05-05T15:44:04.991Z,33.80
2023-05-05T15:46:35.506Z,33.60
2023-05-05T15:49:02.387Z,33.40
2023-05-05T15:51:29.161Z,33.30
2023-05-05T15:53:55.929Z,33.30
2023-05-05T15:56:22.724Z,33.50
2023-05-05T15:58:49.717Z,33.90
2023-05-05T16:01:16.583Z,34.00
2023-05-05T16:03:43.477Z,33.90
2023-05-05T16:06:12.148Z,34.50
2023-05-05T16:08:39.105Z,34.20
2023-05-05T16:11:06.728Z,34.90
2023-05-05T16:13:33.528Z,34.60
2023-05-05T16:16:00.297Z,34.30
2023-05-05T16:18:27.157Z,34.70
2023-05-05T16:20:53.947Z,34.50
2023-05-05T16:23:20.775Z,35.20
2023-05-05T16:25:47.534Z,35.00
2023-05-05T16:28:14.361Z,35.30
2023-05-05T16:30:42.880Z,35.70
2023-05-05T16:33:09.964Z,35.40
2023-05-05T16:35:36.769Z,35.20
2023-05-05T16:38:03.669Z,35.20
2023-05-05T16:40:30.531Z,34.90
2023-05-05T16:42:57.269Z,35.30
2023-05-05T16:45:24.441Z,35.60
2023-05-05T16:47:51.346Z,35.40
2023-05-05T16:50:18.330Z,35.70
2023-05-05T16:52:45.278Z,35.20
2023-05-05T16:55:12.271Z,35.80
2023-05-05T16:57:39.195Z,35.90
2023-05-05T17:00:07.087Z,35.80
2023-05-05T17:02:35.307Z,36.30
2023-05-05T17:05:02.734Z,36.00
2023-05-05T17:07:29.698Z,35.80
2023-05-05T17:09:57.064Z,36.60
2023-05-05T17:12:24.556Z,36.60
2023-05-05T17:14:51.479Z,37.30
2023-05-05T17:17:18.384Z,37.40
2023-05-05T17:19:45.365Z,37.20
2023-05-05T17:22:12.100Z,37.10
2023-05-05T17:24:38.875Z,37.40
2023-05-05T17:27:05.650Z,37.40
2023-05-05T17:29:35.684Z,38.20
2023-05-05T17:32:02.860Z,38.20
2023-05-05T17:34:29.721Z,38.40
2023-05-05T17:36:56.542Z,38.70
2023-05-05T17:39:23.282Z,38.80
2023-05-05T17:41:50.056Z,39.40
2023-05-05T17:44:16.877Z,39.70
2023-05-05T17:46:43.678Z,39.90
2023-05-05T17:52:00.927Z,40.70
2023-05-05T17:54:27.753Z,40.80
2023-05-05T17:56:55.041Z,40.70
2023-05-05T17:59:21.853Z,41.40
2023-05-05T18:01:49.826Z,40.90
2023-05-05T18:04:16.681Z,41.50
2023-05-05T18:06:43.508Z,41.50
2023-05-05T18:09:11.281Z,41.80
2023-05-05T18:11:38.186Z,41.70
2023-05-05T18:14:05.093Z,42.30
2023-05-05T18:16:31.960Z,42.40
2023-05-05T18:18:58.707Z,42.60
2023-05-05T18:21:25.898Z,42.10
2023-05-05T18:23:57.248Z,42.40
2023-05-05T18:26:28.662Z,41.90
2023-05-05T18:28:55.383Z,42.30
2023-05-05T18:31:22.324Z,41.90
2023-05-05T18:33:49.111Z,41.90
2023-05-05T18:36:16.385Z,41.70
2023-05-05T18:38:43.330Z,42.00
2023-05-05T18:41:10.177Z,42.20
2023-05-05T18:43:36.958Z,42.50
2023-05-05T18:46:03.685Z,42.10
2023-05-05T18:48:32.059Z,42.30
2023-05-05T18:51:02.658Z,42.50
2023-05-05T18:53:30.933Z,42.10
2023-05-05T18:55:59.203Z,42.40
2023-05-05T18:58:27.358Z,42.30
2023-05-05T19:00:54.745Z,42.60
2023-05-05T19:03:22.131Z,43.00
2023-05-05T19:05:48.952Z,43.00
2023-05-05T19:08:16.841Z,42.70
2023-05-05T19:10:43.652Z,42.90
2023-05-05T19:13:12.201Z,43.00
2023-05-05T19:15:39.189Z,42.50
2023-05-05T19:18:07.208Z,43.40
2023-05-05T19:20:35.108Z,43.40
2023-05-05T19:23:04.547Z,43.10
2023-05-05T19:25:31.698Z,43.40
2023-05-05T19:27:59.582Z,43.30
2023-05-05T19:30:27.663Z,43.60
2023-05-05T19:32:56.014Z,43.40
2023-05-05T19:35:23.913Z,43.70
2023-05-05T19:37:50.965Z,43.40
2023-05-05T19:40:17.807Z,43.70
2023-05-05T19:42:45.558Z,43.80
2023-05-05T19:45:12.496Z,44.30
2023-05-05T19:47:40.560Z,44.00
2023-05-05T19:50:08.394Z,44.30
2023-05-05T19:52:36.757Z,43.90
2023-05-05T19:55:04.014Z,44.80
2023-05-05T19:57:31.236Z,44.90
2023-05-05T19:59:57.987Z,45.20
2023-05-05T20:02:26.641Z,46.40
2023-05-05T20:04:53.675Z,46.60
2023-05-05T20:07:20.800Z,46.70
2023-05-05T20:09:47.592Z,47.00
2023-05-05T20:12:14.784Z,46.70
2023-05-05T20:14:42.016Z,47.30
2023-05-05T20:17:08.819Z,47.40
2023-05-05T20:19:35.652Z,47.50
2023-05-05T20:22:02.384Z,47.60
2023-05-05T20:24:29.854Z,47.60
2023-05-05T20:26:56.602Z,47.70
2023-05-05T20:29:23.448Z,47.60
2023-05-05T20:31:50.273Z,47.70
2023-05-05T20:34:17.128Z,48.00
2023-05-05T20:36:43.898Z,48.20
2023-05-05T20:39:15.818Z,48.20
2023-05-05T20:41:42.718Z,48.50
2023-05-05T20:44:10.263Z,48.90
2023-05-05T20:46:37.652Z,49.40
2023-05-05T20:49:04.465Z,49.60
2023-05-05T20:51:34.238Z,49.40
2023-05-05T20:54:02.137Z,49.40
2023-05-05T20:56:28.918Z,49.20
2023-05-05T20:58:56.815Z,49.00
2023-05-05T21:01:23.631Z,50.10
2023-05-05T21:03:50.518Z,50.50
2023-05-05T21:06:19.535Z,50.50
2023-05-05T21:08:47.180Z,52.00
2023-05-05T21:11:14.962Z,52.90
2023-05-05T21:13:41.682Z,52.70
2023-05-05T21:16:09.187Z,52.90
2023-05-05T21:18:36.042Z,52.70
2023-05-05T21:21:02.875Z,53.30
2023-05-05T21:23:31.094Z,53.80
2023-05-05T21:25:59.035Z,53.90
2023-05-05T21:28:25.732Z,54.00
2023-05-05T21:33:22.213Z,53.70
2023-05-05T21:35:48.993Z,54.00
2023-05-05T21:38:15.998Z,53.70
2023-05-05T21:40:42.886Z,53.90
2023-05-05T21:43:09.684Z,53.80
2023-05-05T21:45:36.474Z,54.10
2023-05-05T21:48:03.398Z,53.60
2023-05-05T21:50:30.199Z,54.10
2023-05-05T21:52:56.974Z,54.10
2023-05-05T21:55:23.797Z,54.30
2023-05-05T21:57:50.655Z,54.20
2023-05-05T22:00:17.793Z,53.70
2023-05-05T22:02:45.422Z,53.40
2023-05-05T22:05:12.364Z,53.70
2023-05-05T22:07:39.502Z,53.90
2023-05-05T22:10:06.744Z,53.70
2023-05-05T22:12:33.578Z,53.60
2023-05-05T22:15:00.318Z,53.80
2023-05-05T22:17:27.072Z,53.70
2023-05-05T22:19:53.868Z,53.60
2023-05-05T22:22:20.653Z,53.70
2023-05-05T22:24:47.396Z,53.60
2023-05-05T22:27:14.147Z,53.70
2023-05-05T22:29:41.010Z,53.80
2023-05-05T22:32:07.763Z,53.90
2023-05-05T22:34:35.723Z,53.80
2023-05-05T22:37:02.566Z,53.40
2023-05-05T22:39:29.338Z,53.80
2023-05-05T22:41:56.304Z,53.70
2023-05-05T22:44:23.036Z,53.80
2023-05-05T22:46:49.787Z,53.50
2023-05-05T22:49:16.667Z,53.90
2023-05-05T22:51:43.486Z,54.00
2023-05-05T22:54:10.648Z,54.40
2023-05-05T22:56:37.668Z,54.00
2023-05-05T22:59:05.509Z,54.20
2023-05-05T23:01:33.814Z,54.40
2023-05-05T23:04:00.717Z,54.30
2023-05-05T23:06:27.993Z,54.80
2023-05-05T23:08:54.780Z,54.90
2023-05-05T23:11:21.612Z,54.80
2023-05-05T23:13:48.417Z,55.10
2023-05-05T23:16:15.170Z,54.90
2023-05-05T23:18:42.052Z,55.20
2023-05-05T23:21:11.590Z,55.10
2023-05-05T23:23:38.389Z,54.80
2023-05-05T23:26:05.320Z,55.10
2023-05-05T23:28:32.130Z,55.10
2023-05-05T23:30:59.000Z,55.40
2023-05-05T23:33:25.947Z,55.50
2023-05-05T23:35:53.164Z,55.60
2023-05-05T23:38:19.954Z,55.20
2023-05-05T23:40:46.733Z,55.70
2023-05-05T23:43:13.626Z,55.50
2023-05-05T23:45:40.552Z,55.30
2023-05-05T23:48:07.370Z,55.10
2023-05-05T23:50:34.216Z,56.60
2023-05-05T23:53:01.058Z,56.70
2023-05-05T23:55:27.845Z,56.60
2023-05-05T23:57:54.691Z,57.00
